createdAt,value
2023-05-10T00:00:52.709Z,3.03
2023-05-10T00:03:20.794Z,2.92
2023-05-10T00:05:51.895Z,2.67
2023-05-10T00:08:19.820Z,2.83
2023-05-10T00:10:48.043Z,2.85
2023-05-10T00:13:15.947Z,3.00
2023-05-10T00:15:44.912Z,3.17
2023-05-10T00:18:12.864Z,2.83
2023-05-10T00:20:41.162Z,3.00
2023-05-10T00:23:08.995Z,3.45
2023-05-10T00:25:37.261Z,3.05
2023-05-10T00:28:05.310Z,3.05
2023-05-10T00:30:33.699Z,3.60
2023-05-10T00:33:04.102Z,3.03
2023-05-10T00:35:32.374Z,3.63
2023-05-10T00:38:00.329Z,4.20
2023-05-10T00:40:29.707Z,3.40
2023-05-10T00:43:02.298Z,3.72
2023-05-10T00:45:33.107Z,3.60
2023-05-10T00:48:06.182Z,4.40
2023-05-10T00:50:42.399Z,4.28
2023-05-10T00:53:13.346Z,3.72
2023-05-10T00:55:41.640Z,4.47
2023-05-10T00:58:09.789Z,4.10
2023-05-10T01:00:39.699Z,4.05
2023-05-10T01:03:12.564Z,4.35
2023-05-10T01:05:43.421Z,4.50
2023-05-10T01:08:11.551Z,4.67
2023-05-10T01:10:42.272Z,4.45
2023-05-10T01:13:10.986Z,3.78
2023-05-10T01:15:40.172Z,4.45
2023-05-10T01:18:10.546Z,4.20
2023-05-10T01:20:48.064Z,5.00
2023-05-10T01:23:45.022Z,4.72
2023-05-10T01:26:30.507Z,4.68
2023-05-10T01:29:36.733Z,4.10
2023-05-10T01:32:11.182Z,4.40
2023-05-10T01:34:53.637Z,4.10
2023-05-10T01:37:37.363Z,4.28
2023-05-10T01:40:31.513Z,4.53
2023-05-10T01:43:05.137Z,4.50
2023-05-10T01:45:35.237Z,4.90
2023-05-10T01:48:11.342Z,4.63
2023-05-10T01:50:44.190Z,4.50
2023-05-10T01:54:10.928Z,4.50
2023-05-10T01:56:40.670Z,4.50
2023-05-10T01:59:15.067Z,3.80
2023-05-10T02:01:46.124Z,4.40
2023-05-10T02:04:18.182Z,4.07
2023-05-10T02:06:49.616Z,4.38
2023-05-10T02:09:19.180Z,4.85
2023-05-10T02:11:50.412Z,4.00
2023-05-10T02:14:19.531Z,4.10
2023-05-10T02:16:49.186Z,4.10
2023-05-10T02:19:18.198Z,4.47
2023-05-10T02:21:47.288Z,4.35
2023-05-10T02:24:17.045Z,4.53
2023-05-10T02:26:46.488Z,4.00
2023-05-10T02:29:17.323Z,4.10
2023-05-10T02:31:46.678Z,4.78
2023-05-10T02:34:15.360Z,4.63
2023-05-10T02:36:43.997Z,4.43
2023-05-10T02:39:14.540Z,5.00
2023-05-10T02:41:44.387Z,4.32
2023-05-10T02:44:15.341Z,4.40
2023-05-10T02:46:45.828Z,4.30
2023-05-10T02:49:16.760Z,4.32
2023-05-10T02:51:52.518Z,4.30
2023-05-10T02:54:23.539Z,4.38
2023-05-10T02:57:04.937Z,3.95
2023-05-10T02:59:33.760Z,4.40
2023-05-10T03:02:03.015Z,4.60
2023-05-10T03:04:33.093Z,4.72
2023-05-10T03:07:02.316Z,4.87
2023-05-10T03:09:30.747Z,4.50
2023-05-10T03:12:12.533Z,4.63
2023-05-10T03:15:08.542Z,4.95
2023-05-10T03:18:08.743Z,4.60
2023-05-10T03:20:51.395Z,5.07
2023-05-10T03:23:19.471Z,4.57
2023-05-10T03:25:51.284Z,4.57
2023-05-10T03:28:21.498Z,4.68
2023-05-10T03:30:53.726Z,4.60
2023-05-10T03:33:22.305Z,4.85
2023-05-10T03:35:50.984Z,4.95
2023-05-10T03:38:19.096Z,5.00
2023-05-10T03:40:48.309Z,5.05
2023-05-10T03:43:16.427Z,5.35
2023-05-10T03:45:44.182Z,5.32
2023-05-10T03:48:12.379Z,4.80
2023-05-10T03:50:40.400Z,5.13
2023-05-10T03:53:08.646Z,5.60
2023-05-10T03:55:37.466Z,4.85
2023-05-10T03:58:05.890Z,5.20
2023-05-10T04:00:35.016Z,5.22
2023-05-10T04:03:03.322Z,5.20
2023-05-10T04:05:31.136Z,5.43
2023-05-10T04:07:59.223Z,5.50
2023-05-10T04:10:26.984Z,4.97
2023-05-10T04:12:55.193Z,5.30
2023-05-10T04:15:23.217Z,5.28
2023-05-10T04:17:51.467Z,5.60
2023-05-10T04:20:21.737Z,5.50
2023-05-10T04:22:49.865Z,5.67
2023-05-10T04:25:18.258Z,6.13
2023-05-10T04:27:46.346Z,5.82
2023-05-10T04:30:14.321Z,6.28
2023-05-10T04:32:42.560Z,5.90
2023-05-10T04:35:11.729Z,6.45
2023-05-10T04:37:39.746Z,5.85
2023-05-10T04:40:08.227Z,5.88
2023-05-10T04:42:36.457Z,6.10
2023-05-10T04:45:04.506Z,6.13
2023-05-10T04:47:35.020Z,7.07
2023-05-10T04:50:02.855Z,6.25
2023-05-10T04:52:31.693Z,6.50
2023-05-10T04:54:59.413Z,6.95
2023-05-10T04:57:29.547Z,6.93
2023-05-10T04:59:57.347Z,7.45
2023-05-10T05:02:25.587Z,7.20
2023-05-10T05:04:53.573Z,7.57
2023-05-10T05:07:21.790Z,7.43
2023-05-10T05:09:49.441Z,7.10
2023-05-10T05:12:17.572Z,7.40
2023-05-10T05:14:45.477Z,7.70
2023-05-10T05:17:13.490Z,7.95
2023-05-10T05:19:41.275Z,8.23
2023-05-10T05:22:11.486Z,7.28
2023-05-10T05:24:39.404Z,7.70
2023-05-10T05:27:07.935Z,7.70
2023-05-10T05:29:35.787Z,7.57
2023-05-10T05:32:04.289Z,7.85
2023-05-10T05:34:32.199Z,8.00
2023-05-10T05:37:00.222Z,6.60
2023-05-10T05:39:27.907Z,7.80
2023-05-10T05:41:56.130Z,7.15
2023-05-10T05:44:23.945Z,7.30
2023-05-10T05:46:51.954Z,7.13
2023-05-10T05:49:19.632Z,7.55
2023-05-10T05:51:48.487Z,7.53
2023-05-10T05:54:16.229Z,7.38
2023-05-10T05:56:45.297Z,7.45
2023-05-10T05:59:13.185Z,7.93
2023-05-10T06:01:41.174Z,6.97
2023-05-10T06:04:08.947Z,6.50
2023-05-10T06:06:37.243Z,7.47
2023-05-10T06:09:05.116Z,7.13
2023-05-10T06:11:33.241Z,8.35
2023-05-10T06:14:01.515Z,7.07
2023-05-10T06:16:29.627Z,7.20
2023-05-10T06:18:57.515Z,6.45
2023-05-10T06:21:26.569Z,5.88
2023-05-10T06:23:54.306Z,6.78
2023-05-10T06:26:22.310Z,6.78
2023-05-10T06:28:50.057Z,7.03
2023-05-10T06:31:18.815Z,7.03
2023-05-10T06:33:46.852Z,6.45
2023-05-10T06:36:14.870Z,6.88
2023-05-10T06:38:42.623Z,7.93
2023-05-10T06:41:10.733Z,7.70
2023-05-10T06:43:41.007Z,6.53
2023-05-10T06:46:09.320Z,7.00
2023-05-10T06:48:37.310Z,6.93
2023-05-10T06:51:05.403Z,7.30
2023-05-10T06:53:33.124Z,7.38
2023-05-10T06:56:01.412Z,7.45
2023-05-10T06:58:29.192Z,7.82
2023-05-10T07:01:06.196Z,6.85
2023-05-10T07:03:34.055Z,6.05
2023-05-10T07:06:04.154Z,6.10
2023-05-10T07:08:35.569Z,5.72
2023-05-10T07:11:05.282Z,5.65
2023-05-10T07:13:33.332Z,5.93
2023-05-10T07:16:03.044Z,5.25
2023-05-10T07:18:31.415Z,5.15
2023-05-10T07:20:59.528Z,5.50
2023-05-10T07:23:27.228Z,5.05
2023-05-10T07:25:55.304Z,5.22
2023-05-10T07:28:23.157Z,5.05
2023-05-10T07:30:51.598Z,4.35
2023-05-10T07:33:19.433Z,4.35
2023-05-10T07:35:47.644Z,4.13
2023-05-10T07:38:15.659Z,3.83
2023-05-10T07:40:44.096Z,4.40
2023-05-10T07:43:11.790Z,4.22
2023-05-10T07:45:39.833Z,4.00
2023-05-10T07:48:07.741Z,4.38
2023-05-10T07:50:35.879Z,4.00
2023-05-10T07:53:03.686Z,4.20
2023-05-10T07:55:31.749Z,3.90
2023-05-10T07:58:02.111Z,3.63
2023-05-10T08:00:30.307Z,3.88
2023-05-10T08:02:59.576Z,4.38
2023-05-10T08:05:28.091Z,3.70
2023-05-10T08:08:00.474Z,4.22
2023-05-10T08:10:28.607Z,3.78
2023-05-10T08:12:56.383Z,4.05
2023-05-10T08:15:26.698Z,4.10
2023-05-10T08:17:54.601Z,3.88
2023-05-10T08:20:25.603Z,4.45
2023-05-10T08:22:53.513Z,3.58
2023-05-10T08:25:21.668Z,3.90
2023-05-10T08:27:49.716Z,3.60
2023-05-10T08:30:18.452Z,4.05
2023-05-10T08:32:46.540Z,3.85
2023-05-10T08:35:15.577Z,3.10
2023-05-10T08:37:43.443Z,3.33
2023-05-10T08:40:12.933Z,3.45
2023-05-10T08:42:44.461Z,3.90
2023-05-10T08:45:13.318Z,4.07
2023-05-10T08:47:43.473Z,3.90
2023-05-10T08:50:15.829Z,4.07
2023-05-10T08:52:44.109Z,4.28
2023-05-10T08:55:12.310Z,3.85
2023-05-10T08:57:40.414Z,4.22
2023-05-10T09:00:09.615Z,4.07
2023-05-10T09:02:38.676Z,4.40
2023-05-10T09:05:07.616Z,4.38
2023-05-10T09:07:36.364Z,3.85
2023-05-10T09:10:05.777Z,4.18
2023-05-10T09:12:33.627Z,3.88
2023-05-10T09:15:02.765Z,3.72
2023-05-10T09:17:31.586Z,4.13
2023-05-10T09:20:05.059Z,4.13
2023-05-10T09:22:33.208Z,4.00
2023-05-10T09:25:14.941Z,4.10
2023-05-10T09:27:46.486Z,3.90
2023-05-10T09:30:24.136Z,4.38
2023-05-10T09:32:52.611Z,4.28
2023-05-10T09:35:27.206Z,4.40
2023-05-10T09:38:00.169Z,4.10
2023-05-10T09:43:07.163Z,3.85
2023-05-10T09:45:38.682Z,4.88
2023-05-10T09:48:07.590Z,4.00
2023-05-10T09:50:35.883Z,4.70
2023-05-10T09:53:04.667Z,4.15
2023-05-10T09:55:47.566Z,3.83
2023-05-10T09:58:15.897Z,4.30
2023-05-10T10:00:45.670Z,4.00
2023-05-10T10:03:16.304Z,4.15
2023-05-10T10:08:14.093Z,3.30
2023-05-10T10:10:47.818Z,3.83
2023-05-10T10:13:16.556Z,3.40
2023-05-10T10:15:45.793Z,3.40
2023-05-10T10:18:17.119Z,3.90
2023-05-10T10:20:45.636Z,3.92
2023-05-10T10:23:15.822Z,4.43
2023-05-10T10:25:48.823Z,3.75
2023-05-10T10:28:31.045Z,4.10
2023-05-10T10:31:12.867Z,3.95
2023-05-10T10:36:24.122Z,3.88
2023-05-10T10:39:03.875Z,4.00
2023-05-10T10:41:50.591Z,3.60
2023-05-10T10:44:27.696Z,4.15
2023-05-10T10:47:02.331Z,3.60
2023-05-10T10:49:42.651Z,4.18
2023-05-10T10:52:21.433Z,3.80
2023-05-10T10:55:02.399Z,4.22
2023-05-10T10:58:10.109Z,3.70
2023-05-10T11:00:39.476Z,3.80
2023-05-10T11:03:18.451Z,3.88
2023-05-10T11:05:50.433Z,3.88
2023-05-10T11:08:20.014Z,3.88
2023-05-10T11:11:01.503Z,4.07
2023-05-10T11:13:30.411Z,3.85
2023-05-10T11:15:59.954Z,3.97
2023-05-10T11:18:30.049Z,3.75
2023-05-10T11:21:00.856Z,3.58
2023-05-10T11:23:41.414Z,3.60
2023-05-10T11:26:12.559Z,3.88
2023-05-10T11:28:48.269Z,3.38
2023-05-10T11:31:20.239Z,3.33
2023-05-10T11:33:49.593Z,3.00
2023-05-10T11:36:19.559Z,3.28
2023-05-10T11:38:49.032Z,3.60
2023-05-10T11:41:18.958Z,3.38
2023-05-10T11:43:51.625Z,2.90
2023-05-10T11:46:24.338Z,2.90
2023-05-10T11:48:54.630Z,2.75
2023-05-10T11:51:26.420Z,3.00
2023-05-10T11:53:56.259Z,2.53
2023-05-10T11:56:24.668Z,2.67
2023-05-10T11:58:59.306Z,2.90
2023-05-10T12:01:28.913Z,2.90
2023-05-10T12:04:00.879Z,2.45
2023-05-10T12:06:32.868Z,2.55
2023-05-10T12:09:08.758Z,2.45
2023-05-10T12:11:43.878Z,2.40
2023-05-10T12:14:12.843Z,2.50
2023-05-10T12:16:41.029Z,2.65
2023-05-10T12:19:09.274Z,2.45
2023-05-10T12:21:37.240Z,2.50
2023-05-10T12:24:07.851Z,2.90
2023-05-10T12:26:36.794Z,2.40
2023-05-10T12:29:31.278Z,2.60
2023-05-10T12:32:00.578Z,2.90
2023-05-10T12:34:33.085Z,3.05
2023-05-10T12:37:01.570Z,3.10
2023-05-10T12:39:43.739Z,2.60
2023-05-10T12:42:11.816Z,2.40
2023-05-10T12:44:40.876Z,2.58
2023-05-10T12:47:08.768Z,2.58
2023-05-10T12:49:37.099Z,2.50
2023-05-10T12:52:05.028Z,2.67
2023-05-10T12:54:33.228Z,2.33
2023-05-10T12:57:01.178Z,2.25
2023-05-10T12:59:29.557Z,2.30
2023-05-10T13:01:58.961Z,2.33
2023-05-10T13:04:27.297Z,2.40
2023-05-10T13:06:59.468Z,2.75
2023-05-10T13:09:30.373Z,2.53
2023-05-10T13:11:58.198Z,2.70
2023-05-10T13:14:26.737Z,2.90
2023-05-10T13:16:57.967Z,3.03
2023-05-10T13:19:27.166Z,3.30
2023-05-10T13:21:55.026Z,3.08
2023-05-10T13:24:23.341Z,3.08
2023-05-10T13:26:51.494Z,3.33
2023-05-10T13:29:20.224Z,2.75
2023-05-10T13:31:48.064Z,3.05
2023-05-10T13:34:16.104Z,2.72
2023-05-10T13:36:43.890Z,2.95
2023-05-10T13:39:14.187Z,2.38
2023-05-10T13:41:42.503Z,2.17
2023-05-10T13:44:13.255Z,2.38
2023-05-10T13:46:44.501Z,2.28
2023-05-10T13:49:12.551Z,2.50
2023-05-10T13:51:40.230Z,2.72
2023-05-10T13:54:08.465Z,2.72
2023-05-10T13:56:36.247Z,3.20
2023-05-10T13:59:04.316Z,2.72
2023-05-10T14:01:32.445Z,2.88
2023-05-10T14:04:01.344Z,2.60
2023-05-10T14:06:29.536Z,2.80
2023-05-10T14:08:59.802Z,2.60
2023-05-10T14:11:27.574Z,2.42
2023-05-10T14:13:55.687Z,3.08
2023-05-10T14:16:23.535Z,2.90
2023-05-10T14:18:51.744Z,3.03
2023-05-10T14:21:19.607Z,2.80
2023-05-10T14:23:47.656Z,2.88
2023-05-10T14:26:15.448Z,3.03
2023-05-10T14:28:43.527Z,2.85
2023-05-10T14:31:11.350Z,2.78
2023-05-10T14:33:39.451Z,2.88
2023-05-10T14:36:08.018Z,2.97
2023-05-10T14:38:36.188Z,3.00
2023-05-10T14:41:03.950Z,2.90
2023-05-10T14:43:32.338Z,3.00
2023-05-10T14:46:00.115Z,2.45
2023-05-10T14:48:28.217Z,3.05
2023-05-10T14:51:00.637Z,2.63
2023-05-10T14:53:28.711Z,2.70
2023-05-10T14:55:56.570Z,2.50
2023-05-10T14:58:24.931Z,2.38
2023-05-10T15:00:52.678Z,1.90
2023-05-10T15:03:21.250Z,2.10
2023-05-10T15:05:49.524Z,2.13
2023-05-10T15:08:17.557Z,1.83
2023-05-10T15:10:45.224Z,1.80
2023-05-10T15:13:13.193Z,1.83
2023-05-10T15:15:41.065Z,1.70
2023-05-10T15:18:10.990Z,1.63
2023-05-10T15:20:38.999Z,1.50
2023-05-10T15:23:07.097Z,1.98
2023-05-10T15:25:40.506Z,2.15
2023-05-10T15:28:08.595Z,2.30
2023-05-10T15:30:38.698Z,2.10
2023-05-10T15:33:07.021Z,1.97
2023-05-10T15:35:36.757Z,2.35
2023-05-10T15:38:04.844Z,2.08
2023-05-10T15:40:32.799Z,2.00
2023-05-10T15:43:00.843Z,2.20
2023-05-10T15:45:28.576Z,2.17
2023-05-10T15:47:56.576Z,2.30
2023-05-10T15:50:24.348Z,2.05
2023-05-10T15:52:52.558Z,1.88
2023-05-10T15:55:20.951Z,1.90
2023-05-10T15:57:49.064Z,2.22
2023-05-10T16:00:21.140Z,1.90
2023-05-10T16:02:49.335Z,2.17
2023-05-10T16:05:17.474Z,1.85
2023-05-10T16:07:46.862Z,2.10
2023-05-10T16:10:16.840Z,2.00
2023-05-10T16:12:44.999Z,2.30
2023-05-10T16:15:12.866Z,2.40
2023-05-10T16:17:41.530Z,2.20
2023-05-10T16:20:09.764Z,2.25
2023-05-10T16:22:37.845Z,2.20
2023-05-10T16:25:06.263Z,2.38
2023-05-10T16:27:34.349Z,2.10
2023-05-10T16:30:02.248Z,1.88
2023-05-10T16:32:32.926Z,2.80
2023-05-10T16:35:01.005Z,4.10
2023-05-10T16:37:29.111Z,3.17
2023-05-10T16:39:56.882Z,2.75
2023-05-10T16:42:26.138Z,2.20
2023-05-10T16:44:54.847Z,2.20
2023-05-10T16:47:23.352Z,2.30
2023-05-10T16:49:51.273Z,2.58
2023-05-10T16:52:19.278Z,2.13
2023-05-10T16:54:47.037Z,2.28
2023-05-10T16:57:15.132Z,2.53
2023-05-10T16:59:45.492Z,2.17
2023-05-10T17:02:14.489Z,2.67
2023-05-10T17:04:43.610Z,2.63
2023-05-10T17:07:13.207Z,3.63
2023-05-10T17:09:42.589Z,4.00
2023-05-10T17:12:10.973Z,2.80
2023-05-10T17:14:38.751Z,2.22
2023-05-10T17:17:09.497Z,2.33
2023-05-10T17:19:39.887Z,2.50
2023-05-10T17:22:07.949Z,2.47
2023-05-10T17:24:35.879Z,2.30
2023-05-10T17:27:04.518Z,3.15
2023-05-10T17:29:32.621Z,2.38
2023-05-10T17:32:00.867Z,2.40
2023-05-10T17:34:28.878Z,2.35
2023-05-10T17:36:57.601Z,2.60
2023-05-10T17:39:25.495Z,2.72
2023-05-10T17:41:53.855Z,2.25
2023-05-10T17:44:21.656Z,2.53
2023-05-10T17:46:49.748Z,2.38
2023-05-10T17:49:17.508Z,2.47
2023-05-10T17:51:48.077Z,2.30
2023-05-10T17:54:18.016Z,2.30
2023-05-10T17:56:46.331Z,2.28
2023-05-10T17:59:14.088Z,2.03
2023-05-10T18:01:42.194Z,2.53
2023-05-10T18:04:10.193Z,2.58
2023-05-10T18:06:38.559Z,2.50
2023-05-10T18:09:07.396Z,2.50
2023-05-10T18:11:36.758Z,2.28
2023-05-10T18:14:04.741Z,2.25
2023-05-10T18:16:32.906Z,2.20
2023-05-10T18:19:01.136Z,2.38
2023-05-10T18:21:29.244Z,2.38
2023-05-10T18:23:57.327Z,2.30
2023-05-10T18:26:26.098Z,2.70
2023-05-10T18:28:53.805Z,2.33
2023-05-10T18:31:22.030Z,2.58
2023-05-10T18:33:49.963Z,2.45
2023-05-10T18:36:18.322Z,2.60
2023-05-10T18:38:46.093Z,2.70
2023-05-10T18:41:14.639Z,2.70
2023-05-10T18:43:45.164Z,2.70
2023-05-10T18:46:13.338Z,2.90
2023-05-10T18:51:08.688Z,2.88
2023-05-10T18:53:37.591Z,2.85
2023-05-10T18:56:08.082Z,2.88
2023-05-10T18:58:36.325Z,2.90
2023-05-10T19:01:04.478Z,2.90
2023-05-10T19:03:32.779Z,2.88
2023-05-10T19:06:00.677Z,2.83
2023-05-10T19:08:31.134Z,3.10
2023-05-10T19:10:59.026Z,3.08
2023-05-10T19:13:28.868Z,2.97
2023-05-10T19:16:10.650Z,2.80
2023-05-10T19:18:40.505Z,3.00
2023-05-10T19:21:10.655Z,3.10
2023-05-10T19:23:40.178Z,2.90
2023-05-10T19:26:10.135Z,2.95
2023-05-10T19:28:38.462Z,2.63
2023-05-10T19:31:09.611Z,2.92
2023-05-10T19:33:37.758Z,3.00
2023-05-10T19:36:05.663Z,3.22
2023-05-10T19:38:36.503Z,3.20
2023-05-10T19:41:04.613Z,3.03
2023-05-10T19:43:37.493Z,3.25
2023-05-10T19:46:06.132Z,3.20
2023-05-10T19:48:34.170Z,3.38
2023-05-10T19:51:03.499Z,3.05
2023-05-10T19:53:32.432Z,3.53
2023-05-10T19:56:05.294Z,3.40
2023-05-10T19:58:34.107Z,3.03
2023-05-10T20:01:02.247Z,3.20
2023-05-10T20:03:30.557Z,3.33
2023-05-10T20:05:58.307Z,3.08
2023-05-10T20:08:28.871Z,3.13
2023-05-10T20:11:02.422Z,3.22
2023-05-10T20:13:30.878Z,3.35
2023-05-10T20:15:59.885Z,3.47
2023-05-10T20:18:30.957Z,2.95
2023-05-10T20:21:00.560Z,3.33
2023-05-10T20:23:28.931Z,3.45
2023-05-10T20:29:49.038Z,3.17
2023-05-10T20:32:19.836Z,2.88
2023-05-10T20:34:52.935Z,2.60
2023-05-10T20:37:21.276Z,2.30
2023-05-10T20:39:50.577Z,1.88
2023-05-10T20:42:18.859Z,2.15
2023-05-10T20:44:50.773Z,2.38
2023-05-10T20:47:19.090Z,1.90
2023-05-10T20:49:47.852Z,2.05
2023-05-10T20:52:16.324Z,2.42
2023-05-10T20:54:45.006Z,1.98
2023-05-10T20:57:13.360Z,2.20
2023-05-10T20:59:42.158Z,1.95
2023-05-10T21:02:12.856Z,2.10
2023-05-10T21:04:43.858Z,2.78
2023-05-10T21:07:20.795Z,2.60
2023-05-10T21:09:49.294Z,2.40
2023-05-10T21:12:19.547Z,2.70
2023-05-10T21:14:50.409Z,3.47
2023-05-10T21:17:20.105Z,3.25
2023-05-10T21:19:48.635Z,2.70
2023-05-10T21:22:16.927Z,2.80
2023-05-10T21:24:45.454Z,2.80
2023-05-10T21:27:13.458Z,2.72
2023-05-10T21:29:41.704Z,3.28
2023-05-10T21:32:12.312Z,3.42
2023-05-10T21:34:40.819Z,3.40
2023-05-10T21:37:09.124Z,2.97
2023-05-10T21:39:37.451Z,3.45
2023-05-10T21:42:05.474Z,3.15
2023-05-10T21:44:37.169Z,3.05
2023-05-10T21:47:05.800Z,3.10
2023-05-10T21:49:34.425Z,2.95
2023-05-10T21:52:04.765Z,3.30
2023-05-10T21:54:37.341Z,3.70
2023-05-10T21:57:05.534Z,4.38
2023-05-10T21:59:36.232Z,4.88
2023-05-10T22:02:04.461Z,5.05
2023-05-10T22:04:34.952Z,4.90
2023-05-10T22:07:05.660Z,5.25
2023-05-10T22:09:33.960Z,5.10
2023-05-10T22:12:01.911Z,5.07
2023-05-10T22:14:30.804Z,4.90
2023-05-10T22:17:00.126Z,4.95
2023-05-10T22:19:28.750Z,5.13
2023-05-10T22:21:59.486Z,5.07
2023-05-10T22:24:27.885Z,4.50
2023-05-10T22:26:58.579Z,4.43
2023-05-10T22:29:30.377Z,3.75
2023-05-10T22:32:05.770Z,3.80
2023-05-10T22:34:35.624Z,4.00
2023-05-10T22:37:04.105Z,3.90
2023-05-10T22:39:33.662Z,3.78
2023-05-10T22:42:03.174Z,4.05
2023-05-10T22:44:33.331Z,3.63
2023-05-10T22:47:01.557Z,3.83
2023-05-10T22:49:32.340Z,3.80
2023-05-10T22:52:02.493Z,4.28
2023-05-10T22:54:34.905Z,3.65
2023-05-10T22:57:04.679Z,4.70
2023-05-10T22:59:33.857Z,3.90
2023-05-10T23:02:10.114Z,3.80
2023-05-10T23:04:38.545Z,3.83
2023-05-10T23:07:07.195Z,3.53
2023-05-10T23:09:35.594Z,3.55
2023-05-10T23:12:03.844Z,3.25
2023-05-10T23:14:34.713Z,3.20
2023-05-10T23:17:03.261Z,2.90
2023-05-10T23:19:31.505Z,3.08
2023-05-10T23:22:04.082Z,2.30
2023-05-10T23:24:32.554Z,2.97
2023-05-10T23:27:00.540Z,3.03
2023-05-10T23:29:29.381Z,2.70
2023-05-10T23:31:58.415Z,3.28
2023-05-10T23:34:27.934Z,2.80
2023-05-10T23:36:56.609Z,3.05
2023-05-10T23:39:25.270Z,3.35
2023-05-10T23:41:53.610Z,3.20
2023-05-10T23:44:22.180Z,3.00
2023-05-10T23:46:50.229Z,3.22
2023-05-10T23:49:18.764Z,3.45
2023-05-10T23:51:46.902Z,2.70
2023-05-10T23:54:15.309Z,2.72
2023-05-10T23:56:43.451Z,2.78
2023-05-10T23:59:13.979Z,2.67
